sensor_id;sensor_type;location;lat;lon;timestamp;P1;durP1;ratioP1;P2;durP2;ratioP2
32329;SDS011;18807;52.434;13.238;2023-03-13T00:00:35;14.40;;;6.43;;
32329;SDS011;18807;52.434;13.238;2023-03-13T00:08:11;18.07;;;7.43;;
32329;SDS011;18807;52.434;13.238;2023-03-13T00:15:45;15.93;;;7.22;;
32329;SDS011;18807;52.434;13.238;2023-03-13T00:23:21;14.83;;;7.17;;
32329;SDS011;18807;52.434;13.238;2023-03-13T00:31:00;15.77;;;6.78;;
32329;SDS011;18807;52.434;13.238;2023-03-13T00:38:36;16.40;;;6.82;;
32329;SDS011;18807;52.434;13.238;2023-03-13T00:46:12;10.90;;;6.05;;
32329;SDS011;18807;52.434;13.238;2023-03-13T00:53:49;16.70;;;7.82;;
32329;SDS011;18807;52.434;13.238;2023-03-13T01:01:24;15.75;;;8.13;;
32329;SDS011;18807;52.434;13.238;2023-03-13T01:09:01;15.43;;;7.22;;
32329;SDS011;18807;52.434;13.238;2023-03-13T01:16:36;19.20;;;7.63;;
32329;SDS011;18807;52.434;13.238;2023-03-13T01:24:13;19.80;;;9.68;;
32329;SDS011;18807;52.434;13.238;2023-03-13T01:31:48;15.20;;;9.10;;
32329;SDS011;18807;52.434;13.238;2023-03-13T01:39:23;18.53;;;8.27;;
32329;SDS011;18807;52.434;13.238;2023-03-13T01:46:57;15.43;;;7.63;;
32329;SDS011;18807;52.434;13.238;2023-03-13T01:54:33;12.17;;;8.00;;
32329;SDS011;18807;52.434;13.238;2023-03-13T02:02:11;17.27;;;7.60;;
32329;SDS011;18807;52.434;13.238;2023-03-13T02:09:49;13.57;;;6.40;;
32329;SDS011;18807;52.434;13.238;2023-03-13T02:17:25;13.05;;;7.07;;
32329;SDS011;18807;52.434;13.238;2023-03-13T02:25:02;11.00;;;7.57;;
32329;SDS011;18807;52.434;13.238;2023-03-13T02:32:44;14.75;;;7.60;;
32329;SDS011;18807;52.434;13.238;2023-03-13T02:40:20;11.45;;;5.72;;
32329;SDS011;18807;52.434;13.238;2023-03-13T02:48:17;13.75;;;5.00;;
32329;SDS011;18807;52.434;13.238;2023-03-13T02:55:51;12.07;;;5.32;;
32329;SDS011;18807;52.434;13.238;2023-03-13T03:03:27;16.85;;;5.28;;
32329;SDS011;18807;52.434;13.238;2023-03-13T03:11:03;9.70;;;4.97;;
32329;SDS011;18807;52.434;13.238;2023-03-13T03:18:39;17.35;;;5.30;;
32329;SDS011;18807;52.434;13.238;2023-03-13T03:26:14;11.57;;;5.32;;
32329;SDS011;18807;52.434;13.238;2023-03-13T03:33:49;16.25;;;4.55;;
32329;SDS011;18807;52.434;13.238;2023-03-13T03:41:24;11.10;;;4.80;;
32329;SDS011;18807;52.434;13.238;2023-03-13T03:48:59;10.03;;;4.17;;
32329;SDS011;18807;52.434;13.238;2023-03-13T03:56:33;10.70;;;4.13;;
32329;SDS011;18807;52.434;13.238;2023-03-13T04:04:08;8.63;;;3.40;;
32329;SDS011;18807;52.434;13.238;2023-03-13T04:11:43;12.98;;;4.03;;
32329;SDS011;18807;52.434;13.238;2023-03-13T04:19:18;11.77;;;4.30;;
32329;SDS011;18807;52.434;13.238;2023-03-13T04:26:53;11.40;;;4.82;;
32329;SDS011;18807;52.434;13.238;2023-03-13T04:34:28;16.43;;;6.37;;
32329;SDS011;18807;52.434;13.238;2023-03-13T04:42:03;17.25;;;3.47;;
32329;SDS011;18807;52.434;13.238;2023-03-13T04:49:38;12.85;;;3.72;;
32329;SDS011;18807;52.434;13.238;2023-03-13T04:57:13;9.90;;;4.35;;
32329;SDS011;18807;52.434;13.238;2023-03-13T05:04:49;10.97;;;4.50;;
32329;SDS011;18807;52.434;13.238;2023-03-13T05:12:23;18.90;;;3.80;;
32329;SDS011;18807;52.434;13.238;2023-03-13T05:19:59;10.27;;;2.93;;
32329;SDS011;18807;52.434;13.238;2023-03-13T05:27:33;17.50;;;3.80;;
32329;SDS011;18807;52.434;13.238;2023-03-13T05:35:08;14.47;;;4.23;;
32329;SDS011;18807;52.434;13.238;2023-03-13T05:42:43;8.18;;;3.45;;
32329;SDS011;18807;52.434;13.238;2023-03-13T05:50:19;13.32;;;4.28;;
32329;SDS011;18807;52.434;13.238;2023-03-13T05:57:53;11.23;;;3.55;;
32329;SDS011;18807;52.434;13.238;2023-03-13T06:05:29;15.32;;;4.55;;
32329;SDS011;18807;52.434;13.238;2023-03-13T06:13:03;17.23;;;6.18;;
32329;SDS011;18807;52.434;13.238;2023-03-13T06:20:56;20.27;;;5.25;;
32329;SDS011;18807;52.434;13.238;2023-03-13T06:28:31;15.98;;;4.95;;
32329;SDS011;18807;52.434;13.238;2023-03-13T06:36:07;15.20;;;4.17;;
32329;SDS011;18807;52.434;13.238;2023-03-13T06:43:42;14.38;;;4.07;;
32329;SDS011;18807;52.434;13.238;2023-03-13T06:51:19;19.77;;;5.13;;
32329;SDS011;18807;52.434;13.238;2023-03-13T06:58:53;17.23;;;4.03;;
32329;SDS011;18807;52.434;13.238;2023-03-13T07:06:32;20.45;;;5.07;;
32329;SDS011;18807;52.434;13.238;2023-03-13T07:14:06;21.42;;;4.88;;
32329;SDS011;18807;52.434;13.238;2023-03-13T07:21:50;19.38;;;4.78;;
32329;SDS011;18807;52.434;13.238;2023-03-13T07:29:24;16.38;;;3.42;;
32329;SDS011;18807;52.434;13.238;2023-03-13T07:37:01;20.05;;;5.43;;
32329;SDS011;18807;52.434;13.238;2023-03-13T07:44:35;13.75;;;3.88;;
32329;SDS011;18807;52.434;13.238;2023-03-13T07:52:10;14.93;;;3.80;;
32329;SDS011;18807;52.434;13.238;2023-03-13T07:59:44;14.65;;;3.65;;
32329;SDS011;18807;52.434;13.238;2023-03-13T08:07:20;13.32;;;3.70;;
32329;SDS011;18807;52.434;13.238;2023-03-13T08:14:54;22.80;;;4.15;;
32329;SDS011;18807;52.434;13.238;2023-03-13T08:30:04;22.45;;;3.55;;
32329;SDS011;18807;52.434;13.238;2023-03-13T08:37:41;12.93;;;4.57;;
32329;SDS011;18807;52.434;13.238;2023-03-13T08:45:15;13.10;;;3.45;;
32329;SDS011;18807;52.434;13.238;2023-03-13T08:52:51;20.27;;;5.37;;
32329;SDS011;18807;52.434;13.238;2023-03-13T09:00:25;10.10;;;3.33;;
32329;SDS011;18807;52.434;13.238;2023-03-13T09:08:01;14.82;;;3.88;;
32329;SDS011;18807;52.434;13.238;2023-03-13T09:15:35;8.43;;;3.28;;
32329;SDS011;18807;52.434;13.238;2023-03-13T09:23:11;12.07;;;4.13;;
32329;SDS011;18807;52.434;13.238;2023-03-13T09:30:44;14.07;;;2.97;;
32329;SDS011;18807;52.434;13.238;2023-03-13T09:38:22;11.50;;;3.50;;
32329;SDS011;18807;52.434;13.238;2023-03-13T09:45:57;7.22;;;3.28;;
32329;SDS011;18807;52.434;13.238;2023-03-13T09:53:37;13.40;;;3.55;;
32329;SDS011;18807;52.434;13.238;2023-03-13T10:01:16;8.23;;;2.97;;
32329;SDS011;18807;52.434;13.238;2023-03-13T10:08:56;12.57;;;2.45;;
32329;SDS011;18807;52.434;13.238;2023-03-13T10:16:33;10.98;;;2.80;;
32329;SDS011;18807;52.434;13.238;2023-03-13T10:24:17;9.10;;;2.65;;
32329;SDS011;18807;52.434;13.238;2023-03-13T10:31:58;6.60;;;3.05;;
32329;SDS011;18807;52.434;13.238;2023-03-13T10:39:35;5.25;;;2.45;;
32329;SDS011;18807;52.434;13.238;2023-03-13T10:47:10;6.15;;;2.08;;
32329;SDS011;18807;52.434;13.238;2023-03-13T10:54:47;5.43;;;2.05;;
32329;SDS011;18807;52.434;13.238;2023-03-13T11:02:22;8.40;;;1.85;;
32329;SDS011;18807;52.434;13.238;2023-03-13T11:10:01;3.65;;;2.28;;
32329;SDS011;18807;52.434;13.238;2023-03-13T11:17:48;2.85;;;1.77;;
32329;SDS011;18807;52.434;13.238;2023-03-13T11:25:34;3.55;;;1.58;;
32329;SDS011;18807;52.434;13.238;2023-03-13T11:33:15;6.82;;;1.48;;
32329;SDS011;18807;52.434;13.238;2023-03-13T11:41:02;6.57;;;1.67;;
32329;SDS011;18807;52.434;13.238;2023-03-13T11:48:52;1.70;;;1.40;;
32329;SDS011;18807;52.434;13.238;2023-03-13T11:56:38;2.13;;;1.35;;
32329;SDS011;18807;52.434;13.238;2023-03-13T12:04:16;1.83;;;0.90;;
32329;SDS011;18807;52.434;13.238;2023-03-13T12:11:58;2.72;;;1.38;;
32329;SDS011;18807;52.434;13.238;2023-03-13T12:19:36;2.55;;;0.98;;
32329;SDS011;18807;52.434;13.238;2023-03-13T12:27:18;4.40;;;0.93;;
32329;SDS011;18807;52.434;13.238;2023-03-13T12:34:58;1.88;;;1.13;;
32329;SDS011;18807;52.434;13.238;2023-03-13T12:42:44;3.60;;;1.08;;
32329;SDS011;18807;52.434;13.238;2023-03-13T12:50:28;3.10;;;1.10;;
32329;SDS011;18807;52.434;13.238;2023-03-13T12:58:13;0.80;;;0.60;;
32329;SDS011;18807;52.434;13.238;2023-03-13T13:06:09;2.03;;;1.02;;
32329;SDS011;18807;52.434;13.238;2023-03-13T13:13:46;1.75;;;0.80;;
32329;SDS011;18807;52.434;13.238;2023-03-13T13:21:21;1.23;;;0.75;;
32329;SDS011;18807;52.434;13.238;2023-03-13T13:29:00;1.83;;;0.82;;
32329;SDS011;18807;52.434;13.238;2023-03-13T13:36:56;2.65;;;0.80;;
32329;SDS011;18807;52.434;13.238;2023-03-13T13:44:32;1.77;;;1.30;;
32329;SDS011;18807;52.434;13.238;2023-03-13T13:52:16;1.30;;;1.10;;
32329;SDS011;18807;52.434;13.238;2023-03-13T14:00:16;3.90;;;1.05;;
32329;SDS011;18807;52.434;13.238;2023-03-13T14:07:54;5.50;;;1.10;;
32329;SDS011;18807;52.434;13.238;2023-03-13T14:15:34;2.50;;;0.98;;
32329;SDS011;18807;52.434;13.238;2023-03-13T14:23:08;3.05;;;1.02;;
32329;SDS011;18807;52.434;13.238;2023-03-13T14:30:45;1.25;;;1.00;;
32329;SDS011;18807;52.434;13.238;2023-03-13T14:38:39;2.85;;;0.95;;
32329;SDS011;18807;52.434;13.238;2023-03-13T14:46:26;1.57;;;1.13;;
32329;SDS011;18807;52.434;13.238;2023-03-13T14:54:05;1.30;;;1.00;;
32329;SDS011;18807;52.434;13.238;2023-03-13T15:02:00;1.67;;;1.48;;
32329;SDS011;18807;52.434;13.238;2023-03-13T15:09:40;1.50;;;0.90;;
32329;SDS011;18807;52.434;13.238;2023-03-13T15:17:18;1.17;;;1.08;;
32329;SDS011;18807;52.434;13.238;2023-03-13T15:24:53;2.05;;;0.98;;
32329;SDS011;18807;52.434;13.238;2023-03-13T15:32:39;3.70;;;1.33;;
32329;SDS011;18807;52.434;13.238;2023-03-13T15:40:32;2.47;;;0.95;;
32329;SDS011;18807;52.434;13.238;2023-03-13T15:48:13;1.42;;;1.17;;
32329;SDS011;18807;52.434;13.238;2023-03-13T15:55:49;2.25;;;1.48;;
32329;SDS011;18807;52.434;13.238;2023-03-13T16:11:00;1.60;;;1.13;;
32329;SDS011;18807;52.434;13.238;2023-03-13T16:18:36;1.47;;;1.13;;
32329;SDS011;18807;52.434;13.238;2023-03-13T16:26:28;3.55;;;1.50;;
32329;SDS011;18807;52.434;13.238;2023-03-13T16:34:05;1.58;;;1.20;;
32329;SDS011;18807;52.434;13.238;2023-03-13T16:41:39;2.65;;;1.13;;
32329;SDS011;18807;52.434;13.238;2023-03-13T16:49:15;3.42;;;1.40;;
32329;SDS011;18807;52.434;13.238;2023-03-13T16:56:49;2.72;;;1.92;;
32329;SDS011;18807;52.434;13.238;2023-03-13T17:04:24;1.77;;;1.30;;
32329;SDS011;18807;52.434;13.238;2023-03-13T17:11:59;2.15;;;1.40;;
32329;SDS011;18807;52.434;13.238;2023-03-13T17:19:34;1.92;;;1.30;;
32329;SDS011;18807;52.434;13.238;2023-03-13T17:27:09;1.80;;;1.17;;
32329;SDS011;18807;52.434;13.238;2023-03-13T17:34:46;1.98;;;1.08;;
32329;SDS011;18807;52.434;13.238;2023-03-13T17:42:38;2.75;;;1.45;;
32329;SDS011;18807;52.434;13.238;2023-03-13T17:50:16;1.52;;;1.17;;
32329;SDS011;18807;52.434;13.238;2023-03-13T17:57:52;2.17;;;1.60;;
32329;SDS011;18807;52.434;13.238;2023-03-13T18:05:28;2.50;;;1.47;;
32329;SDS011;18807;52.434;13.238;2023-03-13T18:13:01;2.50;;;1.85;;
32329;SDS011;18807;52.434;13.238;2023-03-13T18:20:37;3.10;;;1.90;;
32329;SDS011;18807;52.434;13.238;2023-03-13T18:28:11;1.58;;;1.30;;
32329;SDS011;18807;52.434;13.238;2023-03-13T18:35:46;1.70;;;1.35;;
32329;SDS011;18807;52.434;13.238;2023-03-13T18:43:20;3.03;;;1.60;;
32329;SDS011;18807;52.434;13.238;2023-03-13T18:50:56;2.30;;;1.52;;
32329;SDS011;18807;52.434;13.238;2023-03-13T18:58:30;2.72;;;1.77;;
32329;SDS011;18807;52.434;13.238;2023-03-13T19:06:10;2.50;;;1.75;;
32329;SDS011;18807;52.434;13.238;2023-03-13T19:14:09;1.80;;;1.40;;
32329;SDS011;18807;52.434;13.238;2023-03-13T19:21:45;4.60;;;1.70;;
32329;SDS011;18807;52.434;13.238;2023-03-13T19:29:20;2.30;;;1.70;;
32329;SDS011;18807;52.434;13.238;2023-03-13T19:36:57;3.65;;;1.98;;
32329;SDS011;18807;52.434;13.238;2023-03-13T19:44:31;2.15;;;1.65;;
32329;SDS011;18807;52.434;13.238;2023-03-13T19:52:07;2.13;;;1.75;;
32329;SDS011;18807;52.434;13.238;2023-03-13T19:59:41;3.30;;;2.05;;
32329;SDS011;18807;52.434;13.238;2023-03-13T20:07:33;2.88;;;1.83;;
32329;SDS011;18807;52.434;13.238;2023-03-13T20:15:08;3.30;;;2.42;;
32329;SDS011;18807;52.434;13.238;2023-03-13T20:22:44;4.60;;;2.60;;
32329;SDS011;18807;52.434;13.238;2023-03-13T20:30:18;5.30;;;2.75;;
32329;SDS011;18807;52.434;13.238;2023-03-13T20:37:55;4.20;;;2.38;;
32329;SDS011;18807;52.434;13.238;2023-03-13T20:45:32;2.92;;;2.42;;
32329;SDS011;18807;52.434;13.238;2023-03-13T20:53:07;2.83;;;2.33;;
32329;SDS011;18807;52.434;13.238;2023-03-13T21:00:41;4.38;;;2.65;;
32329;SDS011;18807;52.434;13.238;2023-03-13T21:08:17;2.97;;;2.40;;
32329;SDS011;18807;52.434;13.238;2023-03-13T21:15:57;2.72;;;2.03;;
32329;SDS011;18807;52.434;13.238;2023-03-13T21:23:33;3.65;;;2.35;;
32329;SDS011;18807;52.434;13.238;2023-03-13T21:31:09;2.38;;;1.50;;
32329;SDS011;18807;52.434;13.238;2023-03-13T21:38:47;2.17;;;1.85;;
32329;SDS011;18807;52.434;13.238;2023-03-13T21:46:22;3.00;;;1.10;;
32329;SDS011;18807;52.434;13.238;2023-03-13T21:53:58;1.63;;;1.17;;
32329;SDS011;18807;52.434;13.238;2023-03-13T22:01:31;1.48;;;1.00;;
32329;SDS011;18807;52.434;13.238;2023-03-13T22:09:07;1.40;;;1.27;;
32329;SDS011;18807;52.434;13.238;2023-03-13T22:16:41;1.10;;;0.98;;
32329;SDS011;18807;52.434;13.238;2023-03-13T22:24:16;0.73;;;0.70;;
32329;SDS011;18807;52.434;13.238;2023-03-13T22:31:50;1.45;;;0.90;;
32329;SDS011;18807;52.434;13.238;2023-03-13T22:39:26;1.17;;;0.77;;
32329;SDS011;18807;52.434;13.238;2023-03-13T22:47:17;2.75;;;0.60;;
32329;SDS011;18807;52.434;13.238;2023-03-13T22:54:53;0.98;;;0.70;;
32329;SDS011;18807;52.434;13.238;2023-03-13T23:02:27;1.10;;;0.80;;
32329;SDS011;18807;52.434;13.238;2023-03-13T23:10:03;3.90;;;1.10;;
32329;SDS011;18807;52.434;13.238;2023-03-13T23:17:39;1.00;;;0.88;;
32329;SDS011;18807;52.434;13.238;2023-03-13T23:25:15;1.70;;;1.00;;
32329;SDS011;18807;52.434;13.238;2023-03-13T23:32:50;0.82;;;0.73;;
32329;SDS011;18807;52.434;13.238;2023-03-13T23:40:25;2.28;;;1.55;;
32329;SDS011;18807;52.434;13.238;2023-03-13T23:48:00;0.80;;;0.80;;
32329;SDS011;18807;52.434;13.238;2023-03-13T23:55:35;1.40;;;0.90;;
